Maersk Lirquen — VRKB8 — position and weather

sailwx.info

Track history (hours):
 
Tides and Currents Weather Stations Pressure Air Temp Water Temp Dewpoint Dewpoint Depression Visibility Wind Speed Wind Dir Waves Ship Positions

Maersk Lirquen

Last reported at 2014-Nov-24 03:34 UTC. Time now 2014-Nov-24 04:06 UTC.
Position N 51°28' E 000°20'.

Length 300 m; draft 9.5 m.

Type: Cargo ship. MMSI: 477423500.

Date/timePositionNaut miles runAvg speedWind from/ knotsBaromVisibWave heightAir tempDewpointWater temp
2014-Nov-24 03:34N 51°28' E 000°20'0 0.0
2014-Nov-24 02:33N 51°28' E 000°20'0 0.0
2014-Nov-24 01:34N 51°28' E 000°20'0 0.0
2014-Nov-24 00:34N 51°28' E 000°20'0 0.0
2014-Nov-23 23:33N 51°28' E 000°20'0 0.0
2014-Nov-23 22:34N 51°28' E 000°20'0 0.0
2014-Nov-23 21:34N 51°28' E 000°20'0 0.0
2014-Nov-23 20:33N 51°28' E 000°20'0 0.0
2014-Nov-23 19:34N 51°28' E 000°20'0 0.0
2014-Nov-23 18:34N 51°28' E 000°20'0 0.0
2014-Nov-23 17:34N 51°28' E 000°20'0 0.0
2014-Nov-23 16:34N 51°28' E 000°20'3 2.9
2014-Nov-23 15:33N 51°27' E 000°25'1110.5
2014-Nov-23 14:33N 51°30' E 000°41'1716.8
2014-Nov-23 13:33N 51°32' E 001°08'1817.9
2014-Nov-23 12:33N 51°44' E 001°30'1211.9
2014-Nov-23 11:34N 51°51' E 001°45'1211.6
2014-Nov-23 10:33N 51°53' E 002°04'3013.8
2014-Nov-23 08:24N 52°02' E 002°50'1315.5
2014-Nov-23 07:33N 52°02' E 003°11'1615.5
2014-Nov-23 06:33N 52°04' E 003°36'1312.6
2014-Nov-23 05:34N 52°02' E 003°56'1212.2
2014-Nov-23 04:33N 51°56' E 004°13'7 7.0
2014-Nov-23 03:34N 51°54' E 004°24'1 1.2
2014-Nov-23 02:32N 51°53' E 004°26'0 0.0
2014-Nov-23 01:32N 51°53' E 004°26'0 0.0
2014-Nov-23 00:32N 51°53' E 004°26'0 0.0
2014-Nov-22 23:32N 51°53' E 004°26'0 0.0
2014-Nov-22 22:32N 51°53' E 004°26'0 0.0
2014-Nov-22 21:32N 51°53' E 004°26'0 0.0
2014-Nov-22 20:32N 51°53' E 004°26'0 0.0
2014-Nov-22 19:32N 51°53' E 004°26'0 0.0
2014-Nov-22 18:32N 51°53' E 004°26'0 0.0
2014-Nov-22 17:29N 51°53' E 004°26'0 0.0
2014-Nov-22 16:32N 51°53' E 004°26'0 0.0
2014-Nov-22 15:32N 51°53' E 004°26'0 0.0
2014-Nov-22 14:32N 51°53' E 004°26'0 0.0
2014-Nov-22 13:32N 51°53' E 004°26'0 0.0
2014-Nov-22 12:32N 51°53' E 004°26'0 0.0
2014-Nov-22 11:32N 51°53' E 004°26'0 0.0
2014-Nov-22 10:32N 51°53' E 004°26'0 0.0
2014-Nov-22 09:32N 51°53' E 004°26'0 0.0
2014-Nov-22 08:32N 51°53' E 004°26'0 0.0
2014-Nov-22 07:32N 51°53' E 004°26'0 0.0
2014-Nov-22 06:32N 51°53' E 004°26'0 0.0
2014-Nov-22 05:32N 51°53' E 004°26'0 0.0
2014-Nov-22 04:32N 51°53' E 004°26'0 0.0
2014-Nov-22 03:32N 51°53' E 004°26'0 0.0
2014-Nov-22 02:32N 51°53' E 004°26'0 0.0
2014-Nov-22 01:32N 51°53' E 004°26'0 0.0
2014-Nov-22 00:32N 51°53' E 004°26'0 0.0
2014-Nov-21 23:32N 51°53' E 004°26'0 0.0
2014-Nov-21 22:32N 51°53' E 004°26'0 0.3
2014-Nov-21 21:33N 51°54' E 004°26'4 4.5
2014-Nov-21 20:33N 51°54' E 004°19'8 8.3
2014-Nov-21 19:33N 51°58' E 004°08'1211.8
2014-Nov-21 18:33N 51°59' E 003°49'1010.0
2014-Nov-21 17:33N 51°57' E 003°33'3515.9
2014-Nov-21 15:21N 51°46' E 002°39'1417.5
2014-Nov-21 14:34N 51°37' E 002°23'1817.8
2014-Nov-21 13:33N 51°23' E 002°03'1918.6
2014-Nov-21 12:33N 51°09' E 001°44'1919.5
2014-Nov-21 11:34N 50°53' E 001°26'2019.4
2014-Nov-21 10:31N 50°36' E 001°11'1819.0
2014-Nov-21 09:33N 50°27' E 000°45'2219.8
2014-Nov-21 08:27N 50°22' E 000°12'4620.9
2014-Nov-21 06:16N 50°10' W 000°57'2021.0
2014-Nov-21 05:20N 50°05' W 001°26'1620.5
2014-Nov-21 04:32N 50°02' W 001°51'20817.3
2014-Nov-20 16:31N 48°03' W 006°11'13818.4
2014-Nov-20 09:00N 46°00' W 007°42'48117.5 040 / 331012.8 5.4 15.013.220.0
2014-Nov-19 05:33N 38°08' W 009°42'1818.4
2014-Nov-19 04:33N 37°50' W 009°37'1818.0
2014-Nov-19 03:33N 37°32' W 009°31'1818.1
2014-Nov-19 02:33N 37°15' W 009°26'4016.5
2014-Nov-19 00:09N 36°42' W 008°58'1117.6
2014-Nov-18 23:33N 36°38' W 008°46'16218.0
2014-Nov-18 14:33N 35°59' W 005°31'1111.2
2014-Nov-18 13:33N 36°09' W 005°25'1 1.0
2014-Nov-18 12:32N 36°09' W 005°26'0 0.0
2014-Nov-18 11:32N 36°09' W 005°26'0 0.0
2014-Nov-18 10:29N 36°09' W 005°26'0 0.0
2014-Nov-18 09:32N 36°09' W 005°26'0 0.0
2014-Nov-18 08:32N 36°09' W 005°26'0 0.0
2014-Nov-18 07:32N 36°09' W 005°26'0 0.0
2014-Nov-18 06:32N 36°09' W 005°26'0 0.0
2014-Nov-18 05:32N 36°09' W 005°26'0 0.0
2014-Nov-18 04:32N 36°09' W 005°26'0 0.0
2014-Nov-18 03:32N 36°09' W 005°26'0 0.0
2014-Nov-18 02:32N 36°09' W 005°26'0 0.0
2014-Nov-18 01:32N 36°09' W 005°26'0 0.0
2014-Nov-18 00:29N 36°09' W 005°26'0 0.0
2014-Nov-17 23:32N 36°09' W 005°26'0 0.0
2014-Nov-17 22:17N 36°09' W 005°26'0 0.0
2014-Nov-17 21:32N 36°09' W 005°26'0 0.0
2014-Nov-17 20:29N 36°09' W 005°26'3 2.7
2014-Nov-17 19:33N 36°07' W 005°24'8 7.6
2014-Nov-17 18:33N 36°05' W 005°15'3 3.5
2014-Nov-17 17:33N 36°03' W 005°18'1110.6
2014-Nov-17 16:33N 35°57' W 005°30'71515.0
2014-Nov-15 17:00N 27°00' W 014°42'3618.0 030 / 101016.310.8 23.618.622.0
2014-Nov-15 15:00N 26°36' W 015°12'33615.3 050 / 91016.5 0.3 24.521.527.0
2014-Nov-14 17:00N 22°36' W 019°30'4514.9 030 / 181013.910.8 24.220.923.0
2014-Nov-14 14:00N 22°06' W 020°06'4515.0 040 / 251014.2 0.3 25.520.228.0
2014-Nov-14 11:00N 21°36' W 020°42'   040 / 201016.510.8 25.019.628.0
Track history (hours):
 
Tides and Currents Weather Stations Pressure Air Temp Water Temp Dewpoint Dewpoint Depression Visibility Wind Speed Wind Dir Waves Ship Positions

Maersk Lirquen

Last reported at 2014-Nov-24 03:34 UTC. Time now 2014-Nov-24 04:06 UTC.
Position N 51°28' E 000°20'.

Length 300 m; draft 9.5 m.

Type: Cargo ship. MMSI: 477423500.

Date/timePositionNaut miles runAvg speedWind from/ knotsBaromVisibWave heightAir tempDewpointWater temp
2014-Nov-24 03:34N 51°28' E 000°20'0 0.0
2014-Nov-24 02:33N 51°28' E 000°20'0 0.0
2014-Nov-24 01:34N 51°28' E 000°20'0 0.0
2014-Nov-24 00:34N 51°28' E 000°20'0 0.0
2014-Nov-23 23:33N 51°28' E 000°20'0 0.0
2014-Nov-23 22:34N 51°28' E 000°20'0 0.0
2014-Nov-23 21:34N 51°28' E 000°20'0 0.0
2014-Nov-23 20:33N 51°28' E 000°20'0 0.0
2014-Nov-23 19:34N 51°28' E 000°20'0 0.0
2014-Nov-23 18:34N 51°28' E 000°20'0 0.0
2014-Nov-23 17:34N 51°28' E 000°20'0 0.0
2014-Nov-23 16:34N 51°28' E 000°20'3 2.9
2014-Nov-23 15:33N 51°27' E 000°25'1110.5
2014-Nov-23 14:33N 51°30' E 000°41'1716.8
2014-Nov-23 13:33N 51°32' E 001°08'1817.9
2014-Nov-23 12:33N 51°44' E 001°30'1211.9
2014-Nov-23 11:34N 51°51' E 001°45'1211.6
2014-Nov-23 10:33N 51°53' E 002°04'3013.8
2014-Nov-23 08:24N 52°02' E 002°50'1315.5
2014-Nov-23 07:33N 52°02' E 003°11'1615.5
2014-Nov-23 06:33N 52°04' E 003°36'1312.6
2014-Nov-23 05:34N 52°02' E 003°56'1212.2
2014-Nov-23 04:33N 51°56' E 004°13'7 7.0
2014-Nov-23 03:34N 51°54' E 004°24'1 1.2
2014-Nov-23 02:32N 51°53' E 004°26'0 0.0
2014-Nov-23 01:32N 51°53' E 004°26'0 0.0
2014-Nov-23 00:32N 51°53' E 004°26'0 0.0
2014-Nov-22 23:32N 51°53' E 004°26'0 0.0
2014-Nov-22 22:32N 51°53' E 004°26'0 0.0
2014-Nov-22 21:32N 51°53' E 004°26'0 0.0
2014-Nov-22 20:32N 51°53' E 004°26'0 0.0
2014-Nov-22 19:32N 51°53' E 004°26'0 0.0
2014-Nov-22 18:32N 51°53' E 004°26'0 0.0
2014-Nov-22 17:29N 51°53' E 004°26'0 0.0
2014-Nov-22 16:32N 51°53' E 004°26'0 0.0
2014-Nov-22 15:32N 51°53' E 004°26'0 0.0
2014-Nov-22 14:32N 51°53' E 004°26'0 0.0
2014-Nov-22 13:32N 51°53' E 004°26'0 0.0
2014-Nov-22 12:32N 51°53' E 004°26'0 0.0
2014-Nov-22 11:32N 51°53' E 004°26'0 0.0
2014-Nov-22 10:32N 51°53' E 004°26'0 0.0
2014-Nov-22 09:32N 51°53' E 004°26'0 0.0
2014-Nov-22 08:32N 51°53' E 004°26'0 0.0
2014-Nov-22 07:32N 51°53' E 004°26'0 0.0
2014-Nov-22 06:32N 51°53' E 004°26'0 0.0
2014-Nov-22 05:32N 51°53' E 004°26'0 0.0
2014-Nov-22 04:32N 51°53' E 004°26'0 0.0
2014-Nov-22 03:32N 51°53' E 004°26'0 0.0
2014-Nov-22 02:32N 51°53' E 004°26'0 0.0
2014-Nov-22 01:32N 51°53' E 004°26'0 0.0
2014-Nov-22 00:32N 51°53' E 004°26'0 0.0
2014-Nov-21 23:32N 51°53' E 004°26'0 0.0
2014-Nov-21 22:32N 51°53' E 004°26'0 0.3
2014-Nov-21 21:33N 51°54' E 004°26'4 4.5
2014-Nov-21 20:33N 51°54' E 004°19'8 8.3
2014-Nov-21 19:33N 51°58' E 004°08'1211.8
2014-Nov-21 18:33N 51°59' E 003°49'1010.0
2014-Nov-21 17:33N 51°57' E 003°33'3515.9
2014-Nov-21 15:21N 51°46' E 002°39'1417.5
2014-Nov-21 14:34N 51°37' E 002°23'1817.8
2014-Nov-21 13:33N 51°23' E 002°03'1918.6
2014-Nov-21 12:33N 51°09' E 001°44'1919.5
2014-Nov-21 11:34N 50°53' E 001°26'2019.4
2014-Nov-21 10:31N 50°36' E 001°11'1819.0
2014-Nov-21 09:33N 50°27' E 000°45'2219.8
2014-Nov-21 08:27N 50°22' E 000°12'4620.9
2014-Nov-21 06:16N 50°10' W 000°57'2021.0
2014-Nov-21 05:20N 50°05' W 001°26'1620.5
2014-Nov-21 04:32N 50°02' W 001°51'20817.3
2014-Nov-20 16:31N 48°03' W 006°11'13818.4
2014-Nov-20 09:00N 46°00' W 007°42'48117.5 040 / 331012.8 5.4 15.013.220.0
2014-Nov-19 05:33N 38°08' W 009°42'1818.4
2014-Nov-19 04:33N 37°50' W 009°37'1818.0
2014-Nov-19 03:33N 37°32' W 009°31'1818.1
2014-Nov-19 02:33N 37°15' W 009°26'4016.5
2014-Nov-19 00:09N 36°42' W 008°58'1117.6
2014-Nov-18 23:33N 36°38' W 008°46'16218.0
2014-Nov-18 14:33N 35°59' W 005°31'1111.2
2014-Nov-18 13:33N 36°09' W 005°25'1 1.0
2014-Nov-18 12:32N 36°09' W 005°26'0 0.0
2014-Nov-18 11:32N 36°09' W 005°26'0 0.0
2014-Nov-18 10:29N 36°09' W 005°26'0 0.0
2014-Nov-18 09:32N 36°09' W 005°26'0 0.0
2014-Nov-18 08:32N 36°09' W 005°26'0 0.0
2014-Nov-18 07:32N 36°09' W 005°26'0 0.0
2014-Nov-18 06:32N 36°09' W 005°26'0 0.0
2014-Nov-18 05:32N 36°09' W 005°26'0 0.0
2014-Nov-18 04:32N 36°09' W 005°26'0 0.0
2014-Nov-18 03:32N 36°09' W 005°26'0 0.0
2014-Nov-18 02:32N 36°09' W 005°26'0 0.0
2014-Nov-18 01:32N 36°09' W 005°26'0 0.0
2014-Nov-18 00:29N 36°09' W 005°26'0 0.0
2014-Nov-17 23:32N 36°09' W 005°26'0 0.0
2014-Nov-17 22:17N 36°09' W 005°26'0 0.0
2014-Nov-17 21:32N 36°09' W 005°26'0 0.0
2014-Nov-17 20:29N 36°09' W 005°26'3 2.7
2014-Nov-17 19:33N 36°07' W 005°24'8 7.6
2014-Nov-17 18:33N 36°05' W 005°15'3 3.5
2014-Nov-17 17:33N 36°03' W 005°18'1110.6
2014-Nov-17 16:33N 35°57' W 005°30'71515.0
2014-Nov-15 17:00N 27°00' W 014°42'3618.0 030 / 101016.310.8 23.618.622.0
2014-Nov-15 15:00N 26°36' W 015°12'33615.3 050 / 91016.5 0.3 24.521.527.0
2014-Nov-14 17:00N 22°36' W 019°30'4514.9 030 / 181013.910.8 24.220.923.0
2014-Nov-14 14:00N 22°06' W 020°06'4515.0 040 / 251014.2 0.3 25.520.228.0
2014-Nov-14 11:00N 21°36' W 020°42'   040 / 201016.510.8 25.019.628.0

Dump ship's entire track history